Vickery, Ohio
Current Conditions -  °F | °C
As of 12:32 PM on Friday 19 Dec 2014 (Local Time) from KPCW Reporting Station
Overcast Overcast  
Wind Chill: 22°   Ceiling: 1900
Heat Index: 28°   Visibility: 10mi
Dew Point: 23°   Wind: 6mph
Humidity: 80%   Direction: 10°N
Pressure: 30.24"   Gusts: NA
Location:  41.38°N, 82.93°W
Report Text: KPCW 191732Z AUTO 01005KT 10SM OVC019 M02/M05 A3024 RMK AO2 $
Loading
Personal Weather Stations






























Interactive Weather Map New forecast layout! Learn more

10-Day Weather Forecast

Advertisements
Track Severe Weather on mobile